Lamont, Wyoming
Current Conditions -  °F | °C
As of 10:15 PM on Friday 28 Nov 2014 (Local Time) from KFWZ Reporting Station
Broken Clouds Broken Clouds  
Wind Chill: 28°   Ceiling: 11000
Heat Index: 34°   Visibility: 10mi
Dew Point: 10°   Wind: 7mph
Humidity: 38%   Direction: 220°SW
Pressure: 29.77"   Gusts: NA
Location:  42.1657°N, 107.989°W
Report Text: KFWZ 290515Z AUTO 22006KT 10SM BKN110 01/M12 A2977 RMK AO2
Loading
Personal Weather Stations






























Interactive Weather Map New forecast layout! Learn more

10-Day Weather Forecast

Advertisements
Track Severe Weather on mobile